Close Search

Base
°C
Summit
°C

WEATHER AT A GLANCE

Image Slideshow

RMR Village

Revelstoke Mountain Resort -  RMR Village Webcam

Top of The Stoke

Revelstoke Mountain Resort -  Top of The Stoke Webcam

Top of Stellar

Revelstoke Mountain Resort -  Top of Stellar Webcam

Mackenzie Outpost

Revelstoke Mountain Resort -  Mackenzie Outpost Webcam

Ripper

Revelstoke Mountain Resort -  Ripper Webcam
Base
°C
Summit
°C
Wind (Summit)
km/h

Today's Forecast

Subpeak Weather

Time Avg. Air Temp Dew Point Avg. Rel Humidity Avg. 2 Min Wind Speed Max Gust Velocity MGV Time MGV Direction Avg. Spot Wind Velocity
2026-05-03 14:40:006° C-3° C51%6 km/h11 km/h14:39:00N6 km/h
13:40:006° C-3° C52%15 km/h19 km/h13:37:00NW16 km/h
12:40:005° C-4° C52%15 km/h22 km/h12:36:00NW16 km/h
11:40:005° C-5° C48%10 km/h13 km/h11:40:00NW9 km/h
10:40:004° C-5° C51%5 km/h12 km/h10:37:00N5 km/h
09:40:004° C-6° C51%10 km/h14 km/h09:39:00NW8 km/h
08:40:004° C-6° C50%5 km/h11 km/h08:39:00NE8 km/h
07:40:003° C-6° C50%17 km/h20 km/h07:36:00NW17 km/h
06:40:003° C-6° C51%18 km/h22 km/h06:38:00NW17 km/h
05:40:003° C-6° C51%18 km/h21 km/h05:37:00W17 km/h
04:40:003° C-6° C51%19 km/h22 km/h04:40:00NW18 km/h
03:40:003° C-6° C51%15 km/h18 km/h03:36:00W16 km/h
02:40:004° C-6° C49%17 km/h22 km/h02:36:00W19 km/h
01:40:004° C-6° C47%16 km/h23 km/h01:36:00NW18 km/h
00:40:005° C-6° C46%18 km/h20 km/h00:40:00NW17 km/h
23:40:005° C-6° C45%18 km/h22 km/h23:36:00NW16 km/h
22:40:005° C-6° C45%20 km/h25 km/h22:36:00NW22 km/h
21:40:005° C-6° C42%22 km/h25 km/h21:38:00NW21 km/h
20:40:005° C-6° C43%9 km/h17 km/h20:38:00NW13 km/h
19:40:006° C-6° C43%8 km/h15 km/h19:37:00NW10 km/h
18:40:006° C-6° C44%6 km/h13 km/h18:39:00NE6 km/h
17:40:006° C-6° C43%11 km/h17 km/h17:37:00W12 km/h
16:40:006° C-4° C46%13 km/h19 km/h16:38:00W12 km/h
15:40:005° C-5° C50%14 km/h23 km/h15:38:00NW15 km/h

Time Avg. Air Temp Dew Point Avg. Rel Humidity Avg. 2 Min Wind Speed Max Gust Velocity MGV Time MGV Direction Avg. Spot Wind Velocity
2026-05-03 14:40:006° C-3° C51%6 km/h11 km/h14:39:00N6 km/h
14:35:006° C-3° C52%2 km/h12 km/h14:32:00N3 km/h
14:30:006° C-3° C52%4 km/h19 km/h14:27:00N7 km/h
14:25:006° C-3° C52%4 km/h25 km/h14:23:00N7 km/h
14:20:006° C-3° C52%12 km/h23 km/h14:17:00N14 km/h
14:15:006° C-3° C52%19 km/h25 km/h14:13:00NW18 km/h
14:10:006° C-3° C51%10 km/h25 km/h14:07:00N15 km/h
14:05:006° C-3° C53%14 km/h25 km/h14:05:00NW15 km/h
14:00:006° C-3° C52%9 km/h26 km/h13:58:00NE15 km/h
13:55:006° C-3° C51%10 km/h17 km/h13:55:00W8 km/h
13:50:006° C-3° C50%14 km/h19 km/h13:46:00NW13 km/h
13:45:006° C-4° C51%16 km/h22 km/h13:44:00NW17 km/h
13:40:006° C-3° C52%15 km/h19 km/h13:37:00NW16 km/h

We value your privacy
We use cookies to enhance your browsing experience, serve personalized ads or content, and analyze our traffic. By clicking "Allow Cookies", you consent to our use of cookies. For additional details view our Privacy Policy.
Cookie preferences

You can control how your data is used on our website. Learn more below about the cookies we use by reviewing our Privacy Policy.

Your cookie preferences have been saved.